LIRP Airport Information

Runway Information
Runway 04L Length 9160 ft width 141 ft
Elevation 2 ft Threshold 979 ft Heading 37
Runway 22R Length 9160 ft Width 141 ft
Elevation 6 ft Threshold 0 ft Heading 217
Runway 04R Length 9820 ft width 148 ft
Elevation 3 ft Threshold 490 ft Heading 37
Runway 22L Length 9820 ft Width 148 ft
Elevation 6 ft Threshold 843 ft Heading 217
Airport Frequencies
Type APP Name APP Frequency 122.1 MHZ
Type GND Name GND Frequency 121.6 MHZ
Type TWR Name TWR Frequency 119.1 MHZ
Airport Navaids
Type TACAN Name Pisa Frequency 108300 KHZ
Type VOR-DME Name Pisa Frequency 112100 KHZ
Type NDB Name Pisa Frequency 379 KHZ
Airport Weather Information & NOTAM
ADDS - METARS form results

(1204 UTC 07 August 2020)
Data provider http://aviationweather.gov/metar/data/
 
METAR text: LIRP 071145Z 32007KT 9999 FEW025 30/17 Q1016 NOSIG
Conditions at: LIRP (PISA (CIV/IT-AFB, IT) observed 1145 UTC 07 August 2020
Temperature: 30.0°C (86°F)
Dewpoint: 17.0°C (63°F) [RH = 46%]
Pressure (altimeter): 30.00 inches Hg (1016.0 mb)
Winds: from the NW (320 degrees) at 8 MPH (7 knots; 3.6 m/s)
Visibility: 6 or more miles (10+ km)
Ceiling: at least 12,000 feet AGL
Clouds: few clouds at 2500 feet AGL
Weather: no significant weather observed at this time

METAR text: LIRP 071115Z 31008KT 9999 FEW025 30/17 Q1017 NOSIG
Conditions at: LIRP (PISA (CIV/IT-AFB, IT) observed 1115 UTC 07 August 2020
Temperature: 30.0°C (86°F)
Dewpoint: 17.0°C (63°F) [RH = 46%]
Pressure (altimeter): 30.03 inches Hg (1017.0 mb)
Winds: from the NW (310 degrees) at 9 MPH (8 knots; 4.1 m/s)
Visibility: 6 or more miles (10+ km)
Ceiling: at least 12,000 feet AGL
Clouds: few clouds at 2500 feet AGL
Weather: no significant weather observed at this time

Forecast for: LIRP (PISA (CIV/IT-AFB, IT)
Text: TAF LIRP 071100Z 0712/0812 32008KT CAVOK
Forecast period: 1200 UTC 07 August 2020 to 1200 UTC 08 August 2020
Forecast type: FROM: standard forecast or significant change
Winds: from the NW (320 degrees) at 9 MPH (8 knots; 4.1 m/s)
Visibility: 6 or more miles (10+ km)
Ceiling: unknown
Clouds: missing
Weather: NSW  (no significant weather)